createdAt,value
2019-02-22T00:02:12.380Z,10.50
2019-02-22T00:04:41.594Z,7.10
2019-02-22T00:07:10.628Z,7.87
2019-02-22T00:09:49.074Z,7.17
2019-02-22T00:12:10.565Z,9.37
2019-02-22T00:14:39.843Z,11.03
2019-02-22T00:17:09.181Z,5.10
2019-02-22T00:19:38.155Z,5.73
2019-02-22T00:22:07.198Z,5.87
2019-02-22T00:24:36.184Z,6.93
2019-02-22T00:27:05.259Z,7.03
2019-02-22T00:29:34.259Z,8.20
2019-02-22T00:32:03.647Z,11.87
2019-02-22T00:34:32.796Z,7.87
2019-02-22T00:37:01.853Z,6.10
2019-02-22T00:39:31.115Z,6.70
2019-02-22T00:42:00.158Z,6.47
2019-02-22T00:44:29.203Z,6.57
2019-02-22T00:46:58.751Z,4.67
2019-02-22T00:49:27.790Z,6.07
2019-02-22T00:51:56.767Z,6.47
2019-02-22T00:54:26.650Z,5.27
2019-02-22T00:56:55.638Z,5.87
2019-02-22T00:59:24.806Z,6.10
2019-02-22T01:01:54.983Z,5.50
2019-02-22T01:04:24.030Z,8.03
2019-02-22T01:06:53.154Z,7.47
2019-02-22T01:09:22.157Z,7.07
2019-02-22T01:11:51.122Z,6.33
2019-02-22T01:14:20.094Z,9.23
2019-02-22T01:16:49.087Z,6.60
2019-02-22T01:19:18.138Z,6.00
2019-02-22T01:21:47.194Z,10.23
2019-02-22T01:24:16.266Z,7.70
2019-02-22T01:26:45.303Z,6.43
2019-02-22T01:29:14.347Z,5.93
2019-02-22T01:31:43.984Z,8.77
2019-02-22T01:34:13.027Z,8.27
2019-02-22T01:36:42.077Z,6.03
2019-02-22T01:39:11.326Z,8.47
2019-02-22T01:41:42.959Z,7.50
2019-02-22T01:44:30.855Z,6.47
2019-02-22T01:46:59.845Z,7.07
2019-02-22T01:49:28.887Z,5.10
2019-02-22T01:51:58.324Z,6.40
2019-02-22T01:54:27.388Z,6.90
2019-02-22T01:56:56.369Z,8.27
2019-02-22T01:59:25.434Z,7.83
2019-02-22T02:01:54.740Z,6.40
2019-02-22T02:04:24.315Z,7.33
2019-02-22T02:06:53.949Z,5.80
2019-02-22T02:09:23.109Z,6.93
2019-02-22T02:11:52.311Z,7.33
2019-02-22T02:14:21.488Z,7.83
2019-02-22T02:16:50.537Z,7.47
2019-02-22T02:19:19.505Z,9.10
2019-02-22T02:21:48.709Z,10.27
2019-02-22T02:24:17.769Z,7.87
2019-02-22T02:26:46.751Z,7.17
2019-02-22T02:29:16.145Z,8.57
2019-02-22T02:31:45.148Z,7.77
2019-02-22T02:34:14.178Z,7.83
2019-02-22T02:36:43.793Z,5.53
2019-02-22T02:39:12.863Z,7.00
2019-02-22T02:41:41.958Z,7.40
2019-02-22T02:44:11.987Z,6.93
2019-02-22T02:46:41.360Z,8.20
2019-02-22T02:49:10.683Z,6.17
2019-02-22T02:51:39.939Z,6.03
2019-02-22T02:54:09.021Z,7.47
2019-02-22T02:56:38.090Z,8.70
2019-02-22T02:59:07.923Z,9.30
2019-02-22T03:01:37.133Z,8.53
2019-02-22T03:04:06.816Z,10.77
2019-02-22T03:06:45.638Z,7.30
2019-02-22T03:09:14.756Z,5.90
2019-02-22T03:11:43.866Z,7.40
2019-02-22T03:14:13.051Z,6.47
2019-02-22T03:16:42.258Z,7.53
2019-02-22T03:19:11.351Z,6.03
2019-02-22T03:21:41.110Z,8.30
2019-02-22T03:24:10.189Z,5.17
2019-02-22T03:26:39.250Z,8.60
2019-02-22T03:29:08.367Z,7.90
2019-02-22T03:31:37.366Z,9.03
2019-02-22T03:34:06.522Z,8.17
2019-02-22T03:36:36.084Z,9.63
2019-02-22T03:39:06.645Z,12.17
2019-02-22T03:41:35.774Z,8.27
2019-02-22T03:44:05.861Z,13.30
2019-02-22T03:46:34.839Z,13.40
2019-02-22T03:49:03.863Z,11.57
2019-02-22T03:51:33.678Z,11.67
2019-02-22T03:54:05.023Z,12.17
2019-02-22T03:56:35.328Z,12.10
2019-02-22T03:59:04.407Z,12.30
2019-02-22T04:01:33.673Z,15.27
2019-02-22T04:04:03.875Z,10.97
2019-02-22T04:06:32.951Z,13.77
2019-02-22T04:09:01.983Z,11.53
2019-02-22T04:11:31.059Z,13.73
2019-02-22T04:14:00.144Z,12.40
2019-02-22T04:16:29.250Z,15.60
2019-02-22T04:18:58.323Z,12.40
2019-02-22T04:21:27.414Z,14.43
2019-02-22T04:23:56.494Z,13.90
2019-02-22T04:26:25.842Z,14.07
2019-02-22T04:28:55.314Z,12.47
2019-02-22T04:31:24.535Z,14.37
2019-02-22T04:33:54.562Z,13.37
2019-02-22T04:36:23.696Z,13.00
2019-02-22T04:38:52.877Z,12.83
2019-02-22T04:41:21.978Z,19.10
2019-02-22T04:43:51.124Z,13.23
2019-02-22T04:46:20.165Z,13.17
2019-02-22T04:48:49.651Z,17.03
2019-02-22T04:51:18.782Z,13.77
2019-02-22T04:53:47.858Z,19.57
2019-02-22T04:56:17.262Z,13.57
2019-02-22T04:58:46.332Z,16.77
2019-02-22T05:01:15.514Z,17.77
2019-02-22T05:03:46.171Z,16.13
2019-02-22T05:06:15.252Z,14.07
2019-02-22T05:08:44.318Z,17.77
2019-02-22T05:11:13.395Z,15.30
2019-02-22T05:13:42.537Z,15.23
2019-02-22T05:16:11.519Z,19.60
2019-02-22T05:18:40.744Z,18.67
2019-02-22T05:21:09.809Z,17.10
2019-02-22T05:23:38.886Z,17.97
2019-02-22T05:26:08.044Z,17.80
2019-02-22T05:28:37.017Z,19.43
2019-02-22T05:31:06.269Z,14.97
2019-02-22T05:33:35.822Z,16.73
2019-02-22T05:36:04.935Z,16.27
2019-02-22T05:38:33.931Z,19.07
2019-02-22T05:41:03.017Z,18.73
2019-02-22T05:43:32.038Z,17.07
2019-02-22T05:46:01.087Z,18.50
2019-02-22T05:48:31.001Z,16.33
2019-02-22T05:50:59.970Z,13.13
2019-02-22T05:53:28.961Z,19.47
2019-02-22T05:55:58.630Z,18.10
2019-02-22T05:58:27.854Z,17.87
2019-02-22T06:00:56.944Z,18.00
2019-02-22T06:03:26.088Z,17.83
2019-02-22T06:05:56.187Z,20.97
2019-02-22T06:08:25.267Z,17.17
2019-02-22T06:10:54.479Z,18.53
2019-02-22T06:13:23.564Z,21.47
2019-02-22T06:15:52.627Z,20.10
2019-02-22T06:18:23.194Z,19.43
2019-02-22T06:20:52.468Z,18.97
2019-02-22T06:23:21.539Z,22.47
2019-02-22T06:25:51.098Z,19.20
2019-02-22T06:28:20.200Z,19.67
2019-02-22T06:30:49.282Z,16.70
2019-02-22T06:33:19.001Z,17.43
2019-02-22T06:35:48.046Z,17.83
2019-02-22T06:38:17.118Z,20.83
2019-02-22T06:40:48.137Z,15.77
2019-02-22T06:43:17.417Z,16.90
2019-02-22T06:45:46.466Z,16.57
2019-02-22T06:48:15.719Z,16.67
2019-02-22T06:50:44.770Z,16.20
2019-02-22T06:53:13.975Z,17.73
2019-02-22T06:55:43.591Z,16.07
2019-02-22T06:58:12.620Z,17.47
2019-02-22T07:00:41.692Z,17.47
2019-02-22T07:03:10.898Z,16.53
2019-02-22T07:05:41.055Z,16.07
2019-02-22T07:08:10.107Z,14.53
2019-02-22T07:11:16.531Z,17.53
2019-02-22T07:13:45.618Z,13.97
2019-02-22T07:16:14.668Z,19.13
2019-02-22T07:18:44.186Z,16.53
2019-02-22T07:21:13.195Z,18.30
2019-02-22T07:23:42.338Z,14.40
2019-02-22T07:26:11.935Z,13.23
2019-02-22T07:28:40.992Z,16.13
2019-02-22T07:31:09.969Z,16.73
2019-02-22T07:33:39.526Z,14.93
2019-02-22T07:36:08.635Z,18.23
2019-02-22T07:38:37.712Z,16.67
2019-02-22T07:41:07.126Z,13.90
2019-02-22T07:43:36.110Z,13.07
2019-02-22T07:46:05.244Z,17.53
2019-02-22T07:48:34.638Z,16.17
2019-02-22T07:51:03.728Z,16.53
2019-02-22T07:53:33.169Z,14.87
2019-02-22T07:56:02.519Z,15.33
2019-02-22T07:58:31.666Z,15.93
2019-02-22T08:01:00.959Z,12.07
2019-02-22T08:03:30.151Z,12.03
2019-02-22T08:05:59.491Z,12.80
2019-02-22T08:08:28.826Z,14.13
2019-02-22T08:10:57.879Z,10.70
2019-02-22T08:13:26.976Z,9.77
2019-02-22T08:15:56.072Z,10.77
2019-02-22T08:18:25.157Z,10.13
2019-02-22T08:20:54.205Z,10.57
2019-02-22T08:23:23.358Z,7.70
2019-02-22T08:25:53.143Z,7.93
2019-02-22T08:28:22.119Z,5.93
2019-02-22T08:30:51.089Z,9.20
2019-02-22T08:33:20.138Z,6.53
2019-02-22T08:35:49.199Z,7.00
2019-02-22T08:38:18.240Z,6.53
2019-02-22T08:40:47.380Z,6.27
2019-02-22T08:43:16.424Z,6.17
2019-02-22T08:45:45.405Z,5.03
2019-02-22T08:48:14.835Z,5.37
2019-02-22T08:50:43.965Z,6.40
2019-02-22T08:53:13.053Z,5.43
2019-02-22T08:55:42.138Z,4.93
2019-02-22T08:58:11.243Z,4.57
2019-02-22T09:00:40.290Z,4.60
2019-02-22T09:03:09.427Z,7.43
2019-02-22T09:05:39.090Z,5.97
2019-02-22T09:08:08.260Z,4.43
2019-02-22T09:10:37.959Z,6.73
2019-02-22T09:13:07.022Z,5.37
2019-02-22T09:15:35.986Z,4.77
2019-02-22T09:18:05.978Z,6.63
2019-02-22T09:20:35.119Z,4.53
2019-02-22T09:23:04.187Z,4.83
2019-02-22T09:25:33.551Z,5.80
2019-02-22T09:28:02.596Z,5.33
2019-02-22T09:30:31.664Z,3.70
2019-02-22T09:33:00.997Z,18.63
2019-02-22T09:35:30.241Z,23.93
2019-02-22T09:37:59.290Z,19.83
2019-02-22T09:40:28.526Z,26.50
2019-02-22T09:42:57.724Z,25.57
2019-02-22T09:45:26.766Z,24.27
2019-02-22T09:47:56.527Z,26.83
2019-02-22T09:50:25.608Z,28.10
2019-02-22T09:52:54.645Z,32.83
2019-02-22T09:55:23.722Z,36.50
2019-02-22T09:57:52.713Z,32.73
2019-02-22T10:00:21.834Z,25.03
2019-02-22T10:02:51.971Z,29.07
2019-02-22T10:05:21.196Z,31.80
2019-02-22T10:07:50.252Z,29.47
2019-02-22T10:10:19.558Z,30.23
2019-02-22T10:12:48.536Z,31.03
2019-02-22T10:15:17.604Z,28.67
2019-02-22T10:17:46.862Z,22.40
2019-02-22T10:20:15.906Z,21.23
2019-02-22T10:22:44.946Z,29.23
2019-02-22T10:25:14.430Z,30.53
2019-02-22T10:27:43.492Z,29.23
2019-02-22T10:30:12.546Z,21.90
2019-02-22T10:32:42.049Z,27.97
2019-02-22T10:35:11.148Z,28.73
2019-02-22T10:37:40.142Z,31.17
2019-02-22T10:40:09.264Z,26.53
2019-02-22T10:42:38.321Z,29.53
2019-02-22T10:45:07.682Z,21.83
2019-02-22T10:47:37.207Z,14.13
2019-02-22T10:50:06.291Z,18.53
2019-02-22T10:52:35.352Z,10.63
2019-02-22T10:55:04.641Z,11.07
2019-02-22T10:57:33.688Z,9.07
2019-02-22T11:00:02.739Z,12.43
2019-02-22T11:02:32.438Z,17.00
2019-02-22T11:05:02.026Z,8.90
2019-02-22T11:07:31.615Z,18.47
2019-02-22T11:10:01.314Z,8.00
2019-02-22T11:12:30.487Z,7.80
2019-02-22T11:14:59.522Z,9.70
2019-02-22T11:17:28.765Z,12.30
2019-02-22T11:19:57.831Z,9.80
2019-02-22T11:22:26.797Z,8.03
2019-02-22T11:24:55.880Z,9.30
2019-02-22T11:27:24.920Z,8.00
2019-02-22T11:29:53.997Z,8.17
2019-02-22T11:32:23.154Z,10.07
2019-02-22T11:34:52.220Z,10.07
2019-02-22T11:37:21.250Z,8.93
2019-02-22T11:39:50.418Z,6.73
2019-02-22T11:42:19.398Z,6.73
2019-02-22T11:44:48.460Z,6.40
2019-02-22T11:47:17.783Z,12.30
2019-02-22T11:49:46.749Z,7.10
2019-02-22T11:52:15.991Z,5.97
2019-02-22T11:54:45.042Z,11.60
2019-02-22T11:57:14.594Z,6.33
2019-02-22T11:59:43.564Z,5.97
2019-02-22T12:02:12.899Z,7.03
2019-02-22T12:04:42.023Z,6.97
2019-02-22T12:07:11.576Z,5.83
2019-02-22T12:09:41.118Z,5.43
2019-02-22T12:12:10.158Z,7.73
2019-02-22T12:14:39.201Z,7.10
2019-02-22T12:17:08.566Z,6.73
2019-02-22T12:19:37.602Z,11.23
2019-02-22T12:22:06.666Z,8.27
2019-02-22T12:24:35.836Z,6.73
2019-02-22T12:27:04.893Z,11.50
2019-02-22T12:29:34.015Z,7.33
2019-02-22T12:32:03.341Z,7.90
2019-02-22T12:34:32.399Z,10.17
2019-02-22T12:37:01.460Z,9.13
2019-02-22T12:39:30.587Z,11.83
2019-02-22T12:41:59.564Z,12.00
2019-02-22T12:44:28.610Z,10.47
2019-02-22T12:46:58.146Z,11.53
2019-02-22T12:49:27.203Z,10.47
2019-02-22T12:51:56.422Z,9.60
2019-02-22T12:54:25.510Z,10.00
2019-02-22T12:56:57.306Z,11.63
2019-02-22T12:59:25.440Z,10.10
2019-02-22T13:01:55.165Z,12.47
2019-02-22T13:04:24.221Z,13.93
2019-02-22T13:06:53.686Z,14.50
2019-02-22T13:09:23.349Z,12.03
2019-02-22T13:11:52.398Z,12.70
2019-02-22T13:14:21.387Z,12.67
2019-02-22T13:16:51.271Z,13.77
2019-02-22T13:19:20.350Z,8.83
2019-02-22T13:21:50.025Z,12.53
2019-02-22T13:24:20.414Z,12.50
2019-02-22T13:26:49.475Z,13.83
2019-02-22T13:29:18.454Z,15.37
2019-02-22T13:31:47.593Z,10.80
2019-02-22T13:34:16.568Z,6.33
2019-02-22T13:36:45.622Z,11.17
2019-02-22T13:39:14.669Z,8.00
2019-02-22T13:41:43.639Z,8.10
2019-02-22T13:44:12.640Z,6.70
2019-02-22T13:46:42.238Z,8.87
2019-02-22T13:49:11.282Z,6.67
2019-02-22T13:51:40.330Z,5.20
2019-02-22T13:54:09.434Z,6.57
2019-02-22T13:56:38.491Z,4.60
2019-02-22T13:59:10.238Z,6.17
2019-02-22T14:01:39.843Z,5.23
2019-02-22T14:04:08.892Z,5.40
2019-02-22T14:06:38.412Z,5.53
2019-02-22T14:09:08.399Z,5.30
2019-02-22T14:11:37.462Z,6.80
2019-02-22T14:14:06.522Z,5.47
2019-02-22T14:16:36.610Z,4.67
2019-02-22T14:19:05.584Z,6.00
2019-02-22T14:21:35.188Z,5.77
2019-02-22T14:24:06.038Z,3.97
2019-02-22T14:26:35.018Z,4.00
2019-02-22T14:29:03.991Z,6.87
2019-02-22T14:31:33.059Z,5.67
2019-02-22T14:34:02.030Z,5.97
2019-02-22T14:36:31.096Z,3.30
2019-02-22T14:39:00.418Z,3.80
2019-02-22T14:41:29.547Z,10.53
2019-02-22T14:43:58.608Z,5.37
2019-02-22T14:46:28.198Z,4.73
2019-02-22T14:48:57.258Z,4.43
2019-02-22T14:51:26.306Z,4.33
2019-02-22T14:53:55.298Z,5.00
2019-02-22T14:56:24.266Z,6.63
2019-02-22T14:58:53.318Z,4.53
2019-02-22T15:01:23.374Z,4.07
2019-02-22T15:03:52.429Z,11.53
2019-02-22T15:06:21.869Z,5.87
2019-02-22T15:08:52.476Z,3.17
2019-02-22T15:11:21.466Z,4.33
2019-02-22T15:13:50.574Z,3.13
2019-02-22T15:16:29.878Z,4.03
2019-02-22T15:18:58.918Z,2.93
2019-02-22T15:21:27.994Z,3.50
2019-02-22T15:23:57.520Z,3.60
2019-02-22T15:26:26.654Z,4.27
2019-02-22T15:28:55.712Z,3.17
2019-02-22T15:31:28.796Z,3.47
2019-02-22T15:33:57.376Z,3.17
2019-02-22T15:36:26.311Z,2.93
2019-02-22T15:38:55.303Z,5.70
2019-02-22T15:41:24.427Z,3.13
2019-02-22T15:43:53.490Z,4.00
2019-02-22T15:46:23.279Z,3.40
2019-02-22T15:48:52.251Z,3.20
2019-02-22T15:51:21.301Z,3.50
2019-02-22T15:53:50.314Z,2.53
2019-02-22T15:56:19.363Z,6.23
2019-02-22T15:58:48.437Z,2.87
2019-02-22T16:01:17.866Z,2.70
2019-02-22T16:03:54.635Z,4.13
2019-02-22T16:06:24.749Z,2.77
2019-02-22T16:08:54.472Z,2.60
2019-02-22T16:11:23.970Z,2.53
2019-02-22T16:13:53.333Z,4.00
2019-02-22T16:16:23.508Z,2.40
2019-02-22T16:18:52.811Z,9.07
2019-02-22T16:21:22.143Z,3.27
2019-02-22T16:23:51.210Z,6.47
2019-02-22T16:26:23.697Z,3.33
2019-02-22T16:28:52.950Z,2.63
2019-02-22T16:31:22.135Z,2.23
2019-02-22T16:33:51.170Z,4.33
2019-02-22T16:36:20.399Z,3.23
2019-02-22T16:38:49.451Z,3.57
2019-02-22T16:41:18.508Z,5.00
2019-02-22T16:43:47.990Z,2.90
2019-02-22T16:46:16.966Z,4.00
2019-02-22T16:48:45.969Z,13.63
2019-02-22T16:51:15.412Z,6.10
2019-02-22T16:53:44.451Z,3.40
2019-02-22T16:56:13.501Z,5.50
2019-02-22T16:58:42.561Z,4.40
2019-02-22T17:01:11.652Z,6.60
2019-02-22T17:03:40.761Z,3.53
2019-02-22T17:06:10.074Z,4.87
2019-02-22T17:08:39.345Z,4.43
2019-02-22T17:11:09.109Z,4.23
2019-02-22T17:13:38.191Z,8.40
2019-02-22T17:16:07.235Z,6.70
2019-02-22T17:18:36.246Z,6.33
2019-02-22T17:21:05.589Z,4.70
2019-02-22T17:23:34.702Z,3.10
2019-02-22T17:26:04.335Z,4.17
2019-02-22T17:28:33.580Z,7.10
2019-02-22T17:31:02.636Z,3.43
2019-02-22T17:33:31.774Z,3.00
2019-02-22T17:36:00.839Z,2.70
2019-02-22T17:38:29.815Z,7.80
2019-02-22T17:40:58.892Z,5.53
2019-02-22T17:43:28.167Z,3.77
2019-02-22T17:45:57.390Z,4.37
2019-02-22T17:48:26.445Z,5.30
2019-02-22T17:50:55.701Z,3.73
2019-02-22T17:53:24.751Z,2.90
2019-02-22T17:55:53.811Z,3.20
2019-02-22T17:58:24.639Z,3.57
2019-02-22T18:00:53.783Z,4.57
2019-02-22T18:03:22.838Z,2.97
2019-02-22T18:05:52.409Z,3.93
2019-02-22T18:08:21.863Z,4.40
2019-02-22T18:10:51.150Z,3.27
2019-02-22T18:13:20.407Z,3.13
2019-02-22T18:15:49.458Z,4.93
2019-02-22T18:18:18.673Z,4.20
2019-02-22T18:20:48.326Z,3.00
2019-02-22T18:23:17.552Z,3.23
2019-02-22T18:25:46.509Z,3.83
2019-02-22T18:28:15.537Z,3.93
2019-02-22T18:30:44.726Z,2.40
2019-02-22T18:33:13.787Z,3.17
2019-02-22T18:35:42.854Z,2.43
2019-02-22T18:38:11.832Z,2.93
2019-02-22T18:40:40.884Z,4.47
2019-02-22T18:43:10.578Z,2.50
2019-02-22T18:45:39.559Z,4.30
2019-02-22T18:48:08.607Z,4.27
2019-02-22T18:50:37.810Z,2.70
2019-02-22T18:53:06.858Z,2.97
2019-02-22T18:55:35.844Z,3.53
2019-02-22T18:58:04.914Z,2.70
2019-02-22T19:00:33.959Z,2.30
2019-02-22T19:03:03.024Z,3.83
2019-02-22T19:05:32.324Z,3.07
2019-02-22T19:08:01.323Z,2.13
2019-02-22T19:10:30.778Z,2.50
2019-02-22T19:13:00.389Z,2.70
2019-02-22T19:15:29.438Z,2.60
2019-02-22T19:17:58.491Z,3.97
2019-02-22T19:20:27.580Z,2.40
2019-02-22T19:22:56.646Z,2.83
2019-02-22T19:25:25.698Z,2.10
2019-02-22T19:27:54.790Z,3.00
2019-02-22T19:30:23.944Z,2.77
2019-02-22T19:32:52.983Z,3.53
2019-02-22T19:35:22.074Z,2.10
2019-02-22T19:37:51.130Z,3.23
2019-02-22T19:40:22.341Z,2.53
2019-02-22T19:42:51.410Z,2.40
2019-02-22T19:45:20.455Z,2.47
2019-02-22T19:47:49.513Z,2.60
2019-02-22T19:50:18.625Z,3.00
2019-02-22T19:52:47.706Z,5.53
2019-02-22T19:55:16.853Z,2.33
2019-02-22T19:57:45.957Z,2.23
2019-02-22T20:00:16.170Z,2.67
2019-02-22T20:02:45.152Z,2.77
2019-02-22T20:05:14.544Z,3.13
2019-02-22T20:07:43.600Z,2.10
2019-02-22T20:10:17.917Z,3.20
2019-02-22T20:12:46.089Z,2.53
2019-02-22T20:15:15.686Z,2.70
2019-02-22T20:17:53.157Z,2.00
2019-02-22T20:20:16.101Z,2.00
2019-02-22T20:22:45.091Z,4.80
2019-02-22T20:25:14.143Z,2.83
2019-02-22T20:27:43.231Z,2.37
2019-02-22T20:30:14.170Z,2.57
2019-02-22T20:32:43.229Z,2.50
2019-02-22T20:35:15.079Z,2.00
2019-02-22T20:37:51.770Z,3.20
2019-02-22T20:40:14.931Z,3.30
2019-02-22T20:42:44.274Z,3.30
2019-02-22T20:45:13.358Z,5.33
2019-02-22T20:47:42.404Z,2.73
2019-02-22T20:50:12.101Z,4.07
2019-02-22T20:52:41.167Z,11.03
2019-02-22T20:55:10.427Z,6.33
2019-02-22T20:57:40.617Z,4.20
2019-02-22T21:00:12.342Z,5.20
2019-02-22T21:02:41.414Z,3.70
2019-02-22T21:05:12.510Z,6.63
2019-02-22T21:07:41.583Z,3.30
2019-02-22T21:10:14.618Z,4.50
2019-02-22T21:12:44.040Z,4.57
2019-02-22T21:15:13.151Z,4.40
2019-02-22T21:17:42.223Z,3.80
2019-02-22T21:20:12.137Z,4.83
2019-02-22T21:22:41.187Z,3.07
2019-02-22T21:25:10.433Z,4.07
2019-02-22T21:27:39.514Z,3.80
2019-02-22T21:30:10.119Z,4.00
2019-02-22T21:32:39.117Z,3.90
2019-02-22T21:35:08.625Z,4.30
2019-02-22T21:37:37.698Z,4.37
2019-02-22T21:40:07.818Z,3.50
2019-02-22T21:42:37.366Z,4.70
2019-02-22T21:45:06.743Z,4.17
2019-02-22T21:47:35.799Z,8.53
2019-02-22T21:50:05.531Z,5.77
2019-02-22T21:52:34.587Z,5.97
2019-02-22T21:55:05.283Z,5.60
2019-02-22T21:57:34.396Z,5.33
2019-02-22T22:00:03.459Z,6.67
2019-02-22T22:02:33.557Z,5.63
2019-02-22T22:05:02.939Z,5.37
2019-02-22T22:07:31.999Z,5.00
2019-02-22T22:10:01.247Z,6.17
2019-02-22T22:12:30.489Z,3.93
2019-02-22T22:15:00.014Z,5.43
2019-02-22T22:17:29.070Z,5.13
2019-02-22T22:19:58.061Z,6.10
2019-02-22T22:22:27.107Z,5.00
2019-02-22T22:24:56.186Z,5.23
2019-02-22T22:27:25.171Z,7.93
2019-02-22T22:29:54.463Z,5.30
2019-02-22T22:32:23.688Z,5.77
2019-02-22T22:34:52.755Z,5.90
2019-02-22T22:37:21.801Z,8.37
2019-02-22T22:39:50.855Z,7.30
2019-02-22T22:42:20.210Z,7.50
2019-02-22T22:44:49.190Z,6.00
2019-02-22T22:47:18.420Z,6.60
2019-02-22T22:49:47.780Z,8.57
2019-02-22T22:52:16.826Z,6.03
2019-02-22T22:54:46.143Z,6.23
2019-02-22T22:57:15.515Z,7.10
2019-02-22T22:59:44.576Z,9.87
2019-02-22T23:02:13.577Z,8.60
2019-02-22T23:04:43.935Z,7.37
2019-02-22T23:07:13.003Z,6.17
2019-02-22T23:09:42.338Z,6.20
2019-02-22T23:12:11.417Z,6.47
2019-02-22T23:14:40.618Z,6.60
2019-02-22T23:17:09.699Z,7.10
2019-02-22T23:19:38.921Z,6.83
2019-02-22T23:22:07.962Z,5.73
2019-02-22T23:24:37.024Z,7.27
2019-02-22T23:27:06.134Z,8.97
2019-02-22T23:29:35.186Z,8.10
2019-02-22T23:32:04.224Z,6.47
2019-02-22T23:34:33.432Z,10.63
2019-02-22T23:37:02.494Z,7.57
2019-02-22T23:39:31.538Z,8.53
2019-02-22T23:42:01.014Z,6.10
2019-02-22T23:44:30.002Z,6.93
2019-02-22T23:46:59.053Z,7.30
2019-02-22T23:49:28.153Z,8.80
2019-02-22T23:51:57.202Z,7.77
2019-02-22T23:54:26.236Z,7.13
2019-02-22T23:56:55.305Z,7.03
2019-02-22T23:59:24.367Z,10.07
